sensor_id;sensor_type;location;lat;lon;timestamp;pressure;altitude;pressure_sealevel;temperature
61390;BMP280;47260;48.274;19.814;2022-12-10T11:03:33;97856.78;;;6.58
61390;BMP280;47260;48.274;19.814;2022-12-10T11:06:02;97851.50;;;6.52
61390;BMP280;47260;48.274;19.814;2022-12-10T11:08:32;97861.22;;;6.50
61390;BMP280;47260;48.274;19.814;2022-12-10T11:11:01;97861.66;;;6.54
61390;BMP280;47260;48.274;19.814;2022-12-10T11:13:30;97866.50;;;6.55
61390;BMP280;47260;48.274;19.814;2022-12-10T11:16:00;97864.56;;;6.56
61390;BMP280;47260;48.274;19.814;2022-12-10T11:18:34;97862.13;;;6.58
61390;BMP280;47260;48.274;19.814;2022-12-10T11:21:04;97858.72;;;6.63
61390;BMP280;47260;48.274;19.814;2022-12-10T11:23:37;97846.59;;;6.62
61390;BMP280;47260;48.274;19.814;2022-12-10T11:26:26;97845.38;;;6.63
61390;BMP280;47260;48.274;19.814;2022-12-10T11:29:08;97843.69;;;6.60
61390;BMP280;47260;48.274;19.814;2022-12-10T11:31:49;97847.31;;;6.62
61390;BMP280;47260;48.274;19.814;2022-12-10T11:34:28;97835.94;;;6.62
61390;BMP280;47260;48.274;19.814;2022-12-10T11:37:01;97832.06;;;6.63
61390;BMP280;47260;48.274;19.814;2022-12-10T11:39:50;97826.50;;;6.61
61390;BMP280;47260;48.274;19.814;2022-12-10T11:42:27;97837.38;;;6.63
61390;BMP280;47260;48.274;19.814;2022-12-10T11:45:02;97828.91;;;6.59
61390;BMP280;47260;48.274;19.814;2022-12-10T11:47:40;97838.38;;;6.60
61390;BMP280;47260;48.274;19.814;2022-12-10T11:50:19;97833.56;;;6.53
61390;BMP280;47260;48.274;19.814;2022-12-10T11:52:57;97847.09;;;6.60
61390;BMP280;47260;48.274;19.814;2022-12-10T11:55:33;97853.41;;;6.57
61390;BMP280;47260;48.274;19.814;2022-12-10T11:58:15;97847.56;;;6.59
61390;BMP280;47260;48.274;19.814;2022-12-10T12:00:52;97851.69;;;6.60
61390;BMP280;47260;48.274;19.814;2022-12-10T12:03:38;97856.78;;;6.58
61390;BMP280;47260;48.274;19.814;2022-12-10T12:06:28;97843.69;;;6.60
61390;BMP280;47260;48.274;19.814;2022-12-10T12:09:05;97833.03;;;6.60
61390;BMP280;47260;48.274;19.814;2022-12-10T12:11:49;97838.13;;;6.58
61390;BMP280;47260;48.274;19.814;2022-12-10T12:14:23;97828.50;;;6.49
61390;BMP280;47260;48.274;19.814;2022-12-10T12:16:58;97819.47;;;6.58
61390;BMP280;47260;48.274;19.814;2022-12-10T12:19:31;97828.50;;;6.49
61390;BMP280;47260;48.274;19.814;2022-12-10T12:22:06;97818.63;;;6.38
61390;BMP280;47260;48.274;19.814;2022-12-10T12:24:35;97813.81;;;6.37
61390;BMP280;47260;48.274;19.814;2022-12-10T12:27:08;97818.88;;;6.40
61390;BMP280;47260;48.274;19.814;2022-12-10T12:29:42;97810.88;;;6.40
61390;BMP280;47260;48.274;19.814;2022-12-10T12:32:15;97803.09;;;6.48
61390;BMP280;47260;48.274;19.814;2022-12-10T12:34:47;97791.69;;;6.47
61390;BMP280;47260;48.274;19.814;2022-12-10T12:37:20;97793.56;;;6.53
61390;BMP280;47260;48.274;19.814;2022-12-10T12:39:51;97787.00;;;6.54
61390;BMP280;47260;48.274;19.814;2022-12-10T12:42:24;97784.41;;;6.48
61390;BMP280;47260;48.274;19.814;2022-12-10T12:44:59;97779.19;;;6.37
61390;BMP280;47260;48.274;19.814;2022-12-10T12:47:34;97775.03;;;6.36
61390;BMP280;47260;48.274;19.814;2022-12-10T12:50:16;97785.97;;;6.32
61390;BMP280;47260;48.274;19.814;2022-12-10T12:52:51;97779.91;;;6.37
61390;BMP280;47260;48.274;19.814;2022-12-10T12:55:22;97775.31;;;6.32
61390;BMP280;47260;48.274;19.814;2022-12-10T12:57:55;97781.63;;;6.29
61390;BMP280;47260;48.274;19.814;2022-12-10T13:00:28;97783.28;;;6.38
61390;BMP280;47260;48.274;19.814;2022-12-10T13:03:16;97783.31;;;6.32
61390;BMP280;47260;48.274;19.814;2022-12-10T13:05:44;97784.53;;;6.31
61390;BMP280;47260;48.274;19.814;2022-12-10T13:08:43;97781.38;;;6.33
61390;BMP280;47260;48.274;19.814;2022-12-10T13:11:32;97767.34;;;6.27
61390;BMP280;47260;48.274;19.814;2022-12-10T13:14:30;97767.56;;;6.29
61390;BMP280;47260;48.274;19.814;2022-12-10T13:17:25;97762.72;;;6.33
61390;BMP280;47260;48.274;19.814;2022-12-10T13:19:53;97766.34;;;6.35
61390;BMP280;47260;48.274;19.814;2022-12-10T13:22:42;97771.91;;;6.37
61390;BMP280;47260;48.274;19.814;2022-12-10T13:25:13;97770.22;;;6.34
61390;BMP280;47260;48.274;19.814;2022-12-10T13:27:41;97775.56;;;6.34
61390;BMP280;47260;48.274;19.814;2022-12-10T13:30:30;97777.47;;;6.34
61390;BMP280;47260;48.274;19.814;2022-12-10T13:33:09;97784.28;;;6.35
61390;BMP280;47260;48.274;19.814;2022-12-10T13:35:43;97780.66;;;6.32
61390;BMP280;47260;48.274;19.814;2022-12-10T13:38:20;97767.56;;;6.34
61390;BMP280;47260;48.274;19.814;2022-12-10T13:41:00;97768.06;;;6.33
61390;BMP280;47260;48.274;19.814;2022-12-10T13:43:52;97768.75;;;6.33
61390;BMP280;47260;48.274;19.814;2022-12-10T13:46:52;97775.56;;;6.29
61390;BMP280;47260;48.274;19.814;2022-12-10T13:49:20;97769.78;;;6.30
61390;BMP280;47260;48.274;19.814;2022-12-10T13:51:59;97765.88;;;6.31
61390;BMP280;47260;48.274;19.814;2022-12-10T13:54:41;97770.97;;;6.29
61390;BMP280;47260;48.274;19.814;2022-12-10T13:57:27;97776.06;;;6.33
61390;BMP280;47260;48.274;19.814;2022-12-10T14:00:02;97780.47;;;6.25
61390;BMP280;47260;48.274;19.814;2022-12-10T14:02:51;97784.53;;;6.26
61390;BMP280;47260;48.274;19.814;2022-12-10T14:05:33;97782.13;;;6.28
61390;BMP280;47260;48.274;19.814;2022-12-10T14:08:05;97773.88;;;6.26
61390;BMP280;47260;48.274;19.814;2022-12-10T14:10:34;97783.34;;;6.27
61390;BMP280;47260;48.274;19.814;2022-12-10T14:13:04;97780.19;;;6.28
61390;BMP280;47260;48.274;19.814;2022-12-10T14:15:34;97779.94;;;6.26
61390;BMP280;47260;48.274;19.814;2022-12-10T14:18:11;97784.84;;;6.22
61390;BMP280;47260;48.274;19.814;2022-12-10T14:20:42;97780.94;;;6.23
61390;BMP280;47260;48.274;19.814;2022-12-10T14:23:22;97779.53;;;6.22
61390;BMP280;47260;48.274;19.814;2022-12-10T14:26:09;97769.63;;;6.17
61390;BMP280;47260;48.274;19.814;2022-12-10T14:28:43;97771.75;;;6.24
61390;BMP280;47260;48.274;19.814;2022-12-10T14:31:14;97778.34;;;6.18
61390;BMP280;47260;48.274;19.814;2022-12-10T14:33:44;97781.47;;;6.16
61390;BMP280;47260;48.274;19.814;2022-12-10T14:36:17;97784.13;;;6.16
61390;BMP280;47260;48.274;19.814;2022-12-10T14:38:46;97786.06;;;6.21
61390;BMP280;47260;48.274;19.814;2022-12-10T14:41:17;97786.06;;;6.21
61390;BMP280;47260;48.274;19.814;2022-12-10T14:43:46;97792.63;;;6.20
61390;BMP280;47260;48.274;19.814;2022-12-10T14:46:16;97781.22;;;6.20
61390;BMP280;47260;48.274;19.814;2022-12-10T14:48:43;97786.56;;;6.20
61390;BMP280;47260;48.274;19.814;2022-12-10T14:51:13;97786.56;;;6.20
61390;BMP280;47260;48.274;19.814;2022-12-10T14:53:41;97794.56;;;6.20
61390;BMP280;47260;48.274;19.814;2022-12-10T14:56:11;97790.94;;;6.17
61390;BMP280;47260;48.274;19.814;2022-12-10T14:58:47;97788.25;;;6.17
61390;BMP280;47260;48.274;19.814;2022-12-10T15:01:16;97791.88;;;6.20
61390;BMP280;47260;48.274;19.814;2022-12-10T15:03:47;97788.50;;;6.19
61390;BMP280;47260;48.274;19.814;2022-12-10T15:06:16;97787.00;;;6.24
61390;BMP280;47260;48.274;19.814;2022-12-10T15:08:46;97782.66;;;6.21
61390;BMP280;47260;48.274;19.814;2022-12-10T15:11:15;97775.41;;;6.16
61390;BMP280;47260;48.274;19.814;2022-12-10T15:13:45;97781.75;;;6.13
61390;BMP280;47260;48.274;19.814;2022-12-10T15:16:17;97785.38;;;6.15
61390;BMP280;47260;48.274;19.814;2022-12-10T15:18:45;97779.78;;;6.13
61390;BMP280;47260;48.274;19.814;2022-12-10T15:21:14;97784.91;;;6.11
61390;BMP280;47260;48.274;19.814;2022-12-10T15:23:43;97782.75;;;6.10
61390;BMP280;47260;48.274;19.814;2022-12-10T15:26:17;97780.75;;;6.16
61390;BMP280;47260;48.274;19.814;2022-12-10T15:28:45;97785.66;;;6.12
61390;BMP280;47260;48.274;19.814;2022-12-10T15:31:14;97788.06;;;6.10
61390;BMP280;47260;48.274;19.814;2022-12-10T15:33:47;97784.91;;;6.11
61390;BMP280;47260;48.274;19.814;2022-12-10T15:36:19;97780.03;;;6.15
61390;BMP280;47260;48.274;19.814;2022-12-10T15:38:46;97775.00;;;6.12
61390;BMP280;47260;48.274;19.814;2022-12-10T15:41:33;97766.47;;;6.13
61390;BMP280;47260;48.274;19.814;2022-12-10T15:44:04;97777.44;;;6.10
61390;BMP280;47260;48.274;19.814;2022-12-10T15:46:31;97775.22;;;6.08
61390;BMP280;47260;48.274;19.814;2022-12-10T15:49:00;97775.97;;;6.09
61390;BMP280;47260;48.274;19.814;2022-12-10T15:51:26;97774.53;;;6.08
61390;BMP280;47260;48.274;19.814;2022-12-10T15:53:53;97781.28;;;6.09
61390;BMP280;47260;48.274;19.814;2022-12-10T15:56:20;97775.00;;;6.06
61390;BMP280;47260;48.274;19.814;2022-12-10T15:58:46;97773.81;;;6.07
61390;BMP280;47260;48.274;19.814;2022-12-10T16:01:13;97770.91;;;6.05
61390;BMP280;47260;48.274;19.814;2022-12-10T16:03:41;97776.72;;;6.04
61390;BMP280;47260;48.274;19.814;2022-12-10T16:06:09;97777.19;;;6.08
61390;BMP280;47260;48.274;19.814;2022-12-10T16:08:36;97766.53;;;6.08
61390;BMP280;47260;48.274;19.814;2022-12-10T16:11:16;97767.00;;;6.06
61390;BMP280;47260;48.274;19.814;2022-12-10T16:13:48;97765.34;;;6.03
61390;BMP280;47260;48.274;19.814;2022-12-10T16:16:15;97763.63;;;6.06
61390;BMP280;47260;48.274;19.814;2022-12-10T16:18:43;97759.97;;;6.09
61390;BMP280;47260;48.274;19.814;2022-12-10T16:21:11;97755.63;;;6.06
61390;BMP280;47260;48.274;19.814;2022-12-10T16:23:38;97753.69;;;6.06
61390;BMP280;47260;48.274;19.814;2022-12-10T16:26:12;97749.59;;;6.05
61390;BMP280;47260;48.274;19.814;2022-12-10T16:28:40;97749.84;;;6.07
61390;BMP280;47260;48.274;19.814;2022-12-10T16:31:10;97742.81;;;6.04
61390;BMP280;47260;48.274;19.814;2022-12-10T16:33:37;97747.41;;;6.09
61390;BMP280;47260;48.274;19.814;2022-12-10T16:36:04;97737.69;;;6.12
61390;BMP280;47260;48.274;19.814;2022-12-10T16:38:32;97736.25;;;6.11
61390;BMP280;47260;48.274;19.814;2022-12-10T16:41:00;97738.69;;;6.09
61390;BMP280;47260;48.274;19.814;2022-12-10T16:43:28;97723.94;;;6.08
61390;BMP280;47260;48.274;19.814;2022-12-10T16:45:55;97720.78;;;6.04
61390;BMP280;47260;48.274;19.814;2022-12-10T16:48:23;97726.84;;;6.04
61390;BMP280;47260;48.274;19.814;2022-12-10T16:50:50;97730.97;;;6.05
61390;BMP280;47260;48.274;19.814;2022-12-10T16:53:20;97715.72;;;6.00
61390;BMP280;47260;48.274;19.814;2022-12-10T16:55:49;97724.44;;;6.01
61390;BMP280;47260;48.274;19.814;2022-12-10T16:58:17;97716.72;;;5.97
61390;BMP280;47260;48.274;19.814;2022-12-10T17:00:45;97717.16;;;6.01
61390;BMP280;47260;48.274;19.814;2022-12-10T17:03:13;97709.91;;;6.02
61390;BMP280;47260;48.274;19.814;2022-12-10T17:05:48;97709.88;;;6.07
61390;BMP280;47260;48.274;19.814;2022-12-10T17:08:15;97707.69;;;6.06
61390;BMP280;47260;48.274;19.814;2022-12-10T17:10:42;97699.94;;;6.08
61390;BMP280;47260;48.274;19.814;2022-12-10T17:13:28;97706.72;;;6.03
61390;BMP280;47260;48.274;19.814;2022-12-10T17:15:56;97698.50;;;6.01
61390;BMP280;47260;48.274;19.814;2022-12-10T17:18:23;97696.16;;;5.98
61390;BMP280;47260;48.274;19.814;2022-12-10T17:20:50;97700.31;;;5.93
61390;BMP280;47260;48.274;19.814;2022-12-10T17:23:16;97696.94;;;5.87
61390;BMP280;47260;48.274;19.814;2022-12-10T17:25:43;97701.50;;;5.92
61390;BMP280;47260;48.274;19.814;2022-12-10T17:28:12;97699.81;;;5.89
61390;BMP280;47260;48.274;19.814;2022-12-10T17:30:41;97697.88;;;5.90
61390;BMP280;47260;48.274;19.814;2022-12-10T17:33:11;97692.59;;;5.84
61390;BMP280;47260;48.274;19.814;2022-12-10T17:35:40;97694.03;;;5.85
61390;BMP280;47260;48.274;19.814;2022-12-10T17:38:13;97694.09;;;5.80
61390;BMP280;47260;48.274;19.814;2022-12-10T17:40:40;97692.88;;;5.81
61390;BMP280;47260;48.274;19.814;2022-12-10T17:43:07;97683.47;;;5.74
61390;BMP280;47260;48.274;19.814;2022-12-10T17:45:34;97688.53;;;5.78
61390;BMP280;47260;48.274;19.814;2022-12-10T17:48:02;97683.97;;;5.73
61390;BMP280;47260;48.274;19.814;2022-12-10T17:50:31;97681.34;;;5.67
61390;BMP280;47260;48.274;19.814;2022-12-10T17:52:59;97670.69;;;5.67
61390;BMP280;47260;48.274;19.814;2022-12-10T17:55:26;97677.22;;;5.66
61390;BMP280;47260;48.274;19.814;2022-12-10T17:57:53;97664.66;;;5.61
61390;BMP280;47260;48.274;19.814;2022-12-10T18:00:22;97663.00;;;5.58
61390;BMP280;47260;48.274;19.814;2022-12-10T18:02:49;97661.78;;;5.59
61390;BMP280;47260;48.274;19.814;2022-12-10T18:05:17;97668.31;;;5.58
61390;BMP280;47260;48.274;19.814;2022-12-10T18:07:45;97663.22;;;5.60
61390;BMP280;47260;48.274;19.814;2022-12-10T18:10:15;97646.34;;;5.52
61390;BMP280;47260;48.274;19.814;2022-12-10T18:12:42;97642.97;;;5.51
61390;BMP280;47260;48.274;19.814;2022-12-10T18:15:10;97638.13;;;5.50
61390;BMP280;47260;48.274;19.814;2022-12-10T18:17:37;97637.91;;;5.48
61390;BMP280;47260;48.274;19.814;2022-12-10T18:20:04;97633.56;;;5.45
61390;BMP280;47260;48.274;19.814;2022-12-10T18:22:34;97643.97;;;5.43
61390;BMP280;47260;48.274;19.814;2022-12-10T18:25:01;97631.16;;;5.41
61390;BMP280;47260;48.274;19.814;2022-12-10T18:27:28;97625.59;;;5.39
61390;BMP280;47260;48.274;19.814;2022-12-10T18:29:55;97617.88;;;5.36
61390;BMP280;47260;48.274;19.814;2022-12-10T18:32:22;97630.97;;;5.34
61390;BMP280;47260;48.274;19.814;2022-12-10T18:34:49;97632.22;;;5.27
61390;BMP280;47260;48.274;19.814;2022-12-10T18:37:16;97628.81;;;5.27
61390;BMP280;47260;48.274;19.814;2022-12-10T18:39:44;97620.09;;;5.26
61390;BMP280;47260;48.274;19.814;2022-12-10T18:42:11;97616.97;;;5.28
61390;BMP280;47260;48.274;19.814;2022-12-10T18:44:38;97611.91;;;5.24
61390;BMP280;47260;48.274;19.814;2022-12-10T18:47:09;97603.72;;;5.22
61390;BMP280;47260;48.274;19.814;2022-12-10T18:49:37;97603.97;;;5.19
61390;BMP280;47260;48.274;19.814;2022-12-10T18:52:04;97603.97;;;5.19
61390;BMP280;47260;48.274;19.814;2022-12-10T18:54:31;97602.53;;;5.18
61390;BMP280;47260;48.274;19.814;2022-12-10T18:56:59;97594.56;;;5.18
61390;BMP280;47260;48.274;19.814;2022-12-10T18:59:26;97599.66;;;5.16
61390;BMP280;47260;48.274;19.814;2022-12-10T19:01:53;97604.25;;;5.10
61390;BMP280;47260;48.274;19.814;2022-12-10T19:04:21;97598.19;;;5.09
61390;BMP280;47260;48.274;19.814;2022-12-10T19:06:51;97587.59;;;5.04
61390;BMP280;47260;48.274;19.814;2022-12-10T19:09:17;97595.34;;;5.02
61390;BMP280;47260;48.274;19.814;2022-12-10T19:11:45;97596.56;;;5.01
61390;BMP280;47260;48.274;19.814;2022-12-10T19:14:15;97597.78;;;5.00
61390;BMP280;47260;48.274;19.814;2022-12-10T19:16:42;97602.38;;;4.93
61390;BMP280;47260;48.274;19.814;2022-12-10T19:19:10;97592.00;;;4.96
61390;BMP280;47260;48.274;19.814;2022-12-10T19:21:36;97601.91;;;4.95
61390;BMP280;47260;48.274;19.814;2022-12-10T19:24:04;97602.16;;;4.91
61390;BMP280;47260;48.274;19.814;2022-12-10T19:26:32;97594.94;;;4.86
61390;BMP280;47260;48.274;19.814;2022-12-10T19:29:00;97578.53;;;4.82
61390;BMP280;47260;48.274;19.814;2022-12-10T19:31:28;97574.63;;;4.83
61390;BMP280;47260;48.274;19.814;2022-12-10T19:33:55;97574.41;;;4.81
61390;BMP280;47260;48.274;19.814;2022-12-10T19:36:23;97579.00;;;4.81
61390;BMP280;47260;48.274;19.814;2022-12-10T19:38:51;97571.28;;;4.77
61390;BMP280;47260;48.274;19.814;2022-12-10T19:41:18;97565.00;;;4.80
61390;BMP280;47260;48.274;19.814;2022-12-10T19:43:45;97561.63;;;4.74
61390;BMP280;47260;48.274;19.814;2022-12-10T19:46:13;97563.84;;;4.65
61390;BMP280;47260;48.274;19.814;2022-12-10T19:48:43;97560.69;;;4.66
61390;BMP280;47260;48.274;19.814;2022-12-10T19:51:10;97559.28;;;4.65
61390;BMP280;47260;48.274;19.814;2022-12-10T19:53:37;97558.06;;;4.61
61390;BMP280;47260;48.274;19.814;2022-12-10T19:56:16;97565.56;;;4.62
61390;BMP280;47260;48.274;19.814;2022-12-10T19:58:44;97559.75;;;4.58
61390;BMP280;47260;48.274;19.814;2022-12-10T20:01:10;97559.75;;;4.58
61390;BMP280;47260;48.274;19.814;2022-12-10T20:03:37;97553.75;;;4.52
61390;BMP280;47260;48.274;19.814;2022-12-10T20:06:10;97549.41;;;4.49
61390;BMP280;47260;48.274;19.814;2022-12-10T20:08:38;97544.84;;;4.50
61390;BMP280;47260;48.274;19.814;2022-12-10T20:11:04;97546.03;;;4.49
61390;BMP280;47260;48.274;19.814;2022-12-10T20:13:31;97541.69;;;4.46
61390;BMP280;47260;48.274;19.814;2022-12-10T20:15:58;97537.81;;;4.41
61390;BMP280;47260;48.274;19.814;2022-12-10T20:18:25;97524.09;;;4.43
61390;BMP280;47260;48.274;19.814;2022-12-10T20:20:51;97521.41;;;4.43
61390;BMP280;47260;48.274;19.814;2022-12-10T20:23:19;97513.19;;;4.41
61390;BMP280;47260;48.274;19.814;2022-12-10T20:25:48;97517.06;;;4.40
61390;BMP280;47260;48.274;19.814;2022-12-10T20:28:15;97511.53;;;4.38
61390;BMP280;47260;48.274;19.814;2022-12-10T20:30:42;97518.03;;;4.37
61390;BMP280;47260;48.274;19.814;2022-12-10T20:33:09;97500.66;;;4.36
61390;BMP280;47260;48.274;19.814;2022-12-10T20:35:35;97506.22;;;4.38
61390;BMP280;47260;48.274;19.814;2022-12-10T20:38:02;97501.38;;;4.36
61390;BMP280;47260;48.274;19.814;2022-12-10T20:40:30;97500.41;;;4.39
61390;BMP280;47260;48.274;19.814;2022-12-10T20:42:57;97490.97;;;4.38
61390;BMP280;47260;48.274;19.814;2022-12-10T20:45:23;97494.38;;;4.39
61390;BMP280;47260;48.274;19.814;2022-12-10T20:47:50;97492.66;;;4.47
61390;BMP280;47260;48.274;19.814;2022-12-10T20:50:17;97491.72;;;4.44
61390;BMP280;47260;48.274;19.814;2022-12-10T20:52:44;97487.59;;;4.43
61390;BMP280;47260;48.274;19.814;2022-12-10T20:55:11;97485.19;;;4.45
61390;BMP280;47260;48.274;19.814;2022-12-10T20:57:40;97486.91;;;4.43
61390;BMP280;47260;48.274;19.814;2022-12-10T21:00:09;97486.63;;;4.46
61390;BMP280;47260;48.274;19.814;2022-12-10T21:02:37;97489.28;;;4.46
61390;BMP280;47260;48.274;19.814;2022-12-10T21:05:05;97491.94;;;4.52
61390;BMP280;47260;48.274;19.814;2022-12-10T21:07:31;97490.19;;;4.54
61390;BMP280;47260;48.274;19.814;2022-12-10T21:09:58;97483.72;;;4.50
61390;BMP280;47260;48.274;19.814;2022-12-10T21:12:25;97477.66;;;4.55
61390;BMP280;47260;48.274;19.814;2022-12-10T21:14:53;97481.25;;;4.57
61390;BMP280;47260;48.274;19.814;2022-12-10T21:17:19;97473.28;;;4.63
61390;BMP280;47260;48.274;19.814;2022-12-10T21:19:46;97480.75;;;4.64
61390;BMP280;47260;48.274;19.814;2022-12-10T21:22:16;97479.56;;;4.65
61390;BMP280;47260;48.274;19.814;2022-12-10T21:24:43;97481.00;;;4.61
61390;BMP280;47260;48.274;19.814;2022-12-10T21:27:10;97462.66;;;4.63
61390;BMP280;47260;48.274;19.814;2022-12-10T21:29:37;97475.00;;;4.55
61390;BMP280;47260;48.274;19.814;2022-12-10T21:32:05;97459.78;;;4.55
61390;BMP280;47260;48.274;19.814;2022-12-10T21:34:32;97464.59;;;4.57
61390;BMP280;47260;48.274;19.814;2022-12-10T21:36:58;97463.63;;;4.60
61390;BMP280;47260;48.274;19.814;2022-12-10T21:39:25;97458.31;;;4.60
61390;BMP280;47260;48.274;19.814;2022-12-10T21:41:52;97447.69;;;4.60
61390;BMP280;47260;48.274;19.814;2022-12-10T21:44:36;97448.41;;;4.60
61390;BMP280;47260;48.274;19.814;2022-12-10T21:47:04;97452.44;;;4.72
61390;BMP280;47260;48.274;19.814;2022-12-10T21:49:31;97441.31;;;4.74
61390;BMP280;47260;48.274;19.814;2022-12-10T21:51:57;97452.72;;;4.69
61390;BMP280;47260;48.274;19.814;2022-12-10T21:54:24;97443.19;;;4.84
61390;BMP280;47260;48.274;19.814;2022-12-10T21:56:51;97446.81;;;4.81
61390;BMP280;47260;48.274;19.814;2022-12-10T21:59:18;97425.09;;;4.83
61390;BMP280;47260;48.274;19.814;2022-12-10T22:01:44;97429.66;;;4.88
61390;BMP280;47260;48.274;19.814;2022-12-10T22:04:12;97441.03;;;4.83
61390;BMP280;47260;48.274;19.814;2022-12-10T22:06:39;97441.28;;;4.79
61390;BMP280;47260;48.274;19.814;2022-12-10T22:09:06;97431.59;;;4.82
61390;BMP280;47260;48.274;19.814;2022-12-10T22:11:32;97429.41;;;4.86
61390;BMP280;47260;48.274;19.814;2022-12-10T22:13:59;97427.28;;;4.79
61390;BMP280;47260;48.274;19.814;2022-12-10T22:16:25;97420.03;;;4.79
61390;BMP280;47260;48.274;19.814;2022-12-10T22:18:52;97416.63;;;4.79
61390;BMP280;47260;48.274;19.814;2022-12-10T22:21:20;97421.50;;;4.75
61390;BMP280;47260;48.274;19.814;2022-12-10T22:23:49;97408.47;;;4.71
61390;BMP280;47260;48.274;19.814;2022-12-10T22:26:16;97407.31;;;4.67
61390;BMP280;47260;48.274;19.814;2022-12-10T22:28:42;97394.75;;;4.67
61390;BMP280;47260;48.274;19.814;2022-12-10T22:31:09;97397.41;;;4.67
61390;BMP280;47260;48.274;19.814;2022-12-10T22:33:36;97390.38;;;4.70
61390;BMP280;47260;48.274;19.814;2022-12-10T22:36:04;97385.34;;;4.61
61390;BMP280;47260;48.274;19.814;2022-12-10T22:38:32;97382.44;;;4.64
61390;BMP280;47260;48.274;19.814;2022-12-10T22:40:59;97375.66;;;4.69
61390;BMP280;47260;48.274;19.814;2022-12-10T22:43:26;97369.84;;;4.70
61390;BMP280;47260;48.274;19.814;2022-12-10T22:45:53;97376.09;;;4.73
61390;BMP280;47260;48.274;19.814;2022-12-10T22:48:21;97370.06;;;4.72
61390;BMP280;47260;48.274;19.814;2022-12-10T22:50:48;97368.41;;;4.69
61390;BMP280;47260;48.274;19.814;2022-12-10T22:53:15;97371.34;;;4.60
61390;BMP280;47260;48.274;19.814;2022-12-10T22:55:43;97373.28;;;4.65
61390;BMP280;47260;48.274;19.814;2022-12-10T22:58:09;97371.09;;;4.64
61390;BMP280;47260;48.274;19.814;2022-12-10T23:00:36;97366.50;;;4.64
61390;BMP280;47260;48.274;19.814;2022-12-10T23:03:03;97369.88;;;4.65
61390;BMP280;47260;48.274;19.814;2022-12-10T23:05:33;97370.84;;;4.62
61390;BMP280;47260;48.274;19.814;2022-12-10T23:08:00;97362.88;;;4.62
61390;BMP280;47260;48.274;19.814;2022-12-10T23:10:31;97355.66;;;4.62
61390;BMP280;47260;48.274;19.814;2022-12-10T23:12:59;97346.75;;;4.54
61390;BMP280;47260;48.274;19.814;2022-12-10T23:15:32;97349.41;;;4.54
61390;BMP280;47260;48.274;19.814;2022-12-10T23:17:59;97350.34;;;4.57
61390;BMP280;47260;48.274;19.814;2022-12-10T23:20:25;97344.53;;;4.58
61390;BMP280;47260;48.274;19.814;2022-12-10T23:22:52;97338.53;;;4.58
61390;BMP280;47260;48.274;19.814;2022-12-10T23:25:19;97334.47;;;4.51
61390;BMP280;47260;48.274;19.814;2022-12-10T23:27:45;97332.00;;;4.53
61390;BMP280;47260;48.274;19.814;2022-12-10T23:30:14;97326.22;;;4.55
61390;BMP280;47260;48.274;19.814;2022-12-10T23:32:41;97318.97;;;4.55
61390;BMP280;47260;48.274;19.814;2022-12-10T23:35:08;97316.53;;;4.57
61390;BMP280;47260;48.274;19.814;2022-12-10T23:37:34;97307.13;;;4.56
61390;BMP280;47260;48.274;19.814;2022-12-10T23:40:02;97309.56;;;4.54
61390;BMP280;47260;48.274;19.814;2022-12-10T23:42:29;97305.19;;;4.57
61390;BMP280;47260;48.274;19.814;2022-12-10T23:44:56;97303.50;;;4.54
61390;BMP280;47260;48.274;19.814;2022-12-10T23:47:25;97287.56;;;4.54
61390;BMP280;47260;48.274;19.814;2022-12-10T23:49:52;97285.44;;;4.52
61390;BMP280;47260;48.274;19.814;2022-12-10T23:52:20;97279.59;;;4.54
61390;BMP280;47260;48.274;19.814;2022-12-10T23:54:47;97275.81;;;4.49
61390;BMP280;47260;48.274;19.814;2022-12-10T23:57:14;97280.19;;;4.41
61390;BMP280;47260;48.274;19.814;2022-12-10T23:59:40;97274.47;;;4.32
